Fort Bragg AAF, North Carolina
Current Conditions -  °F | °C
As of 4:58 PM on Wednesday 22 Oct 2014 (Local Time) from KFBG Reporting Station
Scattered Clouds Scattered Clouds  
Wind Chill: 67°   Ceiling: Unl
Heat Index: 67°   Visibility: 10mi
Dew Point: 43°   Wind: 12mph
Humidity: 42%   Direction: 340°NNW
Pressure: 29.96"   Gusts: NA
Location:  35.13°N, 78.93°W
Report Text: KFBG 222058Z AUTO 34010KT 10SM SCT060 20/06 A2996 RMK AO2 SLP148 T01960062 57003 $
Loading
Personal Weather Stations






























Interactive Weather Map
Tropical Storm Tracking
New forecast layout! Learn more

10-Day Weather Forecast

Advertisements
Track Severe Weather on mobile